Time;durP1;ratioP1;P1;durP2;ratioP2;P2;SDS_P1;SDS_P2;PMS_P1;PMS_P2;Temp;Humidity;BMP_temperature;BMP_pressure;BME280_temperature;BME280_humidity;BME280_pressure;Samples;Min_cycle;Max_cycle;Signal;HPM_P1;HPM_P2
2021/06/07 00:00:08;;;;;;;7.70;7.10;;;18.90;82.30;;;;;;10538209;28;20219;-23
2021/06/07 00:05:32;;;;;;;9.43;6.83;;;18.90;82.30;;;;;;10536501;28;20220;-25
2021/06/07 00:10:54;;;;;;;8.13;7.33;;;18.90;82.30;;;;;;10537484;28;20215;-25
2021/06/07 00:16:16;;;;;;;8.00;7.30;;;18.90;82.30;;;;;;10538105;28;20196;-23
2021/06/07 00:21:40;;;;;;;8.17;7.33;;;18.80;82.20;;;;;;10578430;28;20211;-22
2021/06/07 00:27:03;;;;;;;7.83;7.07;;;18.90;82.20;;;;;;10579994;28;20219;-23
2021/06/07 00:32:25;;;;;;;7.97;7.27;;;18.90;82.20;;;;;;10578406;28;20214;-23
2021/06/07 00:37:48;;;;;;;7.83;7.07;;;18.90;82.20;;;;;;10566553;28;20199;-25
2021/06/07 00:43:10;;;;;;;7.60;6.93;;;18.90;82.20;;;;;;10558542;28;20219;-24
2021/06/07 00:48:32;;;;;;;7.70;7.00;;;18.90;82.20;;;;;;10535570;28;20593;-25
2021/06/07 00:53:55;;;;;;;7.50;6.70;;;18.80;82.10;;;;;;10540854;28;20210;-25
2021/06/07 00:59:17;;;;;;;6.87;6.37;;;18.90;82.10;;;;;;10535554;28;20204;-24
2021/06/07 01:04:38;;;;;;;7.93;7.23;;;18.90;82.40;;;;;;10542156;28;20665;-25
2021/06/07 01:10:01;;;;;;;8.17;7.30;;;18.90;82.10;;;;;;10577472;28;20645;-23
2021/06/07 01:15:23;;;;;;;7.17;6.57;;;18.80;82.00;;;;;;10578015;28;20214;-25
2021/06/07 01:20:45;;;;;;;6.90;6.40;;;18.90;82.10;;;;;;10570912;27;20686;-25
2021/06/07 01:26:09;;;;;;;7.50;6.90;;;18.80;82.00;;;;;;10569430;27;20234;-23
2021/06/07 01:31:31;;;;;;;7.23;6.53;;;18.80;82.00;;;;;;10563463;28;20219;-23
2021/06/07 01:36:52;;;;;;;8.03;7.33;;;18.80;82.00;;;;;;10564342;28;20655;-24
2021/06/07 01:42:16;;;;;;;7.27;6.67;;;18.80;82.00;;;;;;10588275;28;20213;-23
2021/06/07 01:47:37;;;;;;;8.10;7.40;;;18.80;82.00;;;;;;10560068;28;20218;-24
2021/06/07 01:52:59;;;;;;;7.20;6.60;;;18.90;82.00;;;;;;10575775;28;20689;-23
2021/06/07 01:58:23;;;;;;;7.73;7.03;;;18.80;81.90;;;;;;10536893;28;20245;-25
2021/06/07 02:03:45;;;;;;;7.33;6.73;;;18.90;82.00;;;;;;10564531;28;20195;-24
2021/06/07 02:09:06;;;;;;;7.77;7.07;;;18.80;81.90;;;;;;10576178;28;20226;-24
2021/06/07 02:14:29;;;;;;;6.90;6.33;;;18.80;81.90;;;;;;10576369;28;20191;-23
2021/06/07 02:19:51;;;;;;;8.73;6.80;;;18.80;81.90;;;;;;10566952;28;20713;-25
2021/06/07 02:25:14;;;;;;;8.17;7.37;;;18.90;82.00;;;;;;10563897;28;20609;-24
2021/06/07 02:30:38;;;;;;;7.63;6.93;;;18.80;81.90;;;;;;10574890;28;20219;-23
2021/06/07 02:35:59;;;;;;;7.43;6.83;;;18.80;81.80;;;;;;10581921;28;20187;-26
2021/06/07 02:41:21;;;;;;;7.50;6.83;;;18.80;81.80;;;;;;10570737;28;20212;-24
2021/06/07 02:46:44;;;;;;;7.23;6.63;;;18.80;81.80;;;;;;10556970;28;20215;-23
2021/06/07 02:52:06;;;;;;;8.37;7.60;;;18.80;81.90;;;;;;10565556;28;20215;-28
2021/06/07 02:57:27;;;;;;;7.40;6.73;;;18.80;81.80;;;;;;10541833;28;20694;-25
2021/06/07 03:02:50;;;;;;;7.53;6.83;;;18.80;81.80;;;;;;10557515;28;20233;-23
2021/06/07 03:08:14;;;;;;;7.73;7.10;;;18.80;81.70;;;;;;10541171;28;20223;-24
2021/06/07 03:13:36;;;;;;;7.90;7.20;;;18.80;81.80;;;;;;10542307;28;20219;-23
2021/06/07 03:18:59;;;;;;;8.03;7.33;;;18.80;81.70;;;;;;10571896;27;20191;-24
2021/06/07 03:24:21;;;;;;;7.50;6.90;;;18.80;81.70;;;;;;10584273;27;20252;-23
2021/06/07 03:29:42;;;;;;;7.63;6.90;;;18.80;81.70;;;;;;10539707;28;20587;-25
2021/06/07 03:35:07;;;;;;;8.40;7.60;;;18.90;81.80;;;;;;10539278;28;20191;-25
2021/06/07 03:40:32;;;;;;;7.83;6.90;;;18.80;81.70;;;;;;10582683;27;20214;-23
2021/06/07 03:45:54;;;;;;;9.20;8.30;;;18.80;81.70;;;;;;10564708;28;20212;-27
2021/06/07 03:51:17;;;;;;;7.90;7.10;;;18.80;81.70;;;;;;10578321;28;20217;-24
2021/06/07 03:56:38;;;;;;;7.77;6.97;;;18.80;81.60;;;;;;10541237;28;20195;-26
2021/06/07 04:02:02;;;;;;;10.07;7.10;;;18.80;81.40;;;;;;10560869;28;20234;-25
2021/06/07 04:07:25;;;;;;;8.90;8.07;;;18.80;81.40;;;;;;10538357;28;20245;-23
2021/06/07 04:12:49;;;;;;;8.87;7.60;;;18.80;81.50;;;;;;10538772;28;20227;-25
2021/06/07 04:18:10;;;;;;;7.80;7.07;;;18.80;81.40;;;;;;10560571;28;20719;-23
2021/06/07 04:23:34;;;;;;;8.30;7.50;;;18.80;81.40;;;;;;10578774;28;20219;-24
2021/06/07 04:28:55;;;;;;;7.67;6.93;;;18.80;81.30;;;;;;10561336;28;20614;-25
2021/06/07 04:34:17;;;;;;;8.40;7.40;;;18.80;81.40;;;;;;10572257;28;20198;-23
2021/06/07 04:39:40;;;;;;;8.27;7.47;;;18.80;81.30;;;;;;10569407;28;20646;-27
2021/06/07 04:45:02;;;;;;;7.20;6.50;;;18.80;81.30;;;;;;10571773;28;20474;-24
2021/06/07 04:50:27;;;;;;;7.37;6.67;;;18.80;81.30;;;;;;10565313;28;20223;-25
2021/06/07 04:55:52;;;;;;;7.67;6.97;;;18.80;81.30;;;;;;10563682;28;20206;-24
2021/06/07 05:01:16;;;;;;;7.73;7.03;;;18.80;81.30;;;;;;10542394;28;20229;-22
2021/06/07 05:06:37;;;;;;;7.80;7.10;;;18.80;81.30;;;;;;10553336;28;20207;-23
2021/06/07 05:12:04;;;;;;;10.80;9.70;;;18.80;81.20;;;;;;10554402;22;20239;-25
2021/06/07 05:17:26;;;;;;;13.37;11.97;;;18.80;79.80;;;;;;10480315;28;20189;-22
2021/06/07 05:22:48;;;;;;;11.90;10.70;;;18.40;79.90;;;;;;10465298;28;20224;-22
2021/06/07 05:28:13;;;;;;;13.10;10.53;;;18.00;82.20;;;;;;10492617;28;20224;-24
2021/06/07 05:33:34;;;;;;;12.27;10.73;;;17.90;82.70;;;;;;10492399;28;20219;-23
2021/06/07 05:38:56;;;;;;;12.17;10.97;;;17.90;83.00;;;;;;10491099;28;20219;-21
2021/06/07 05:44:19;;;;;;;12.20;10.57;;;17.80;83.20;;;;;;10491149;28;20227;-22
2021/06/07 05:49:40;;;;;;;9.83;8.93;;;17.80;83.30;;;;;;10487974;28;20228;-22
2021/06/07 05:55:03;;;;;;;9.97;7.57;;;17.80;83.30;;;;;;10491310;28;20634;-22
2021/06/07 06:00:28;;;;;;;8.63;7.73;;;18.10;82.80;;;;;;10491363;28;20275;-21
2021/06/07 06:05:50;;;;;;;7.30;6.60;;;18.30;82.50;;;;;;10490972;28;20208;-21
2021/06/07 06:11:11;;;;;;;6.87;6.20;;;18.40;82.20;;;;;;10497324;28;20228;-22
2021/06/07 06:16:34;;;;;;;6.53;5.40;;;18.50;81.90;;;;;;10500242;28;20197;-22
2021/06/07 06:21:57;;;;;;;7.30;6.27;;;18.60;81.70;;;;;;10494455;28;20216;-24
2021/06/07 06:27:19;;;;;;;6.20;5.43;;;18.60;81.60;;;;;;10500275;28;20240;-24
2021/06/07 06:32:42;;;;;;;5.57;4.73;;;18.60;81.40;;;;;;10499636;28;20216;-25
2021/06/07 06:38:04;;;;;;;5.43;4.93;;;18.70;81.40;;;;;;10498902;28;20196;-24
2021/06/07 06:43:26;;;;;;;5.20;4.70;;;18.70;81.30;;;;;;10498967;28;20216;-24
2021/06/07 06:48:49;;;;;;;5.43;4.90;;;18.70;81.30;;;;;;10497783;28;20220;-25
2021/06/07 06:54:10;;;;;;;4.73;4.27;;;18.70;81.20;;;;;;10486176;28;20291;-24
2021/06/07 06:59:32;;;;;;;6.63;4.50;;;18.80;81.20;;;;;;10457892;28;20193;-22
2021/06/07 07:04:55;;;;;;;5.07;4.57;;;18.80;81.20;;;;;;10456664;28;20603;-22
2021/06/07 07:10:17;;;;;;;5.70;4.40;;;18.80;81.20;;;;;;10496426;28;20203;-22
2021/06/07 07:15:39;;;;;;;4.50;4.10;;;18.80;81.10;;;;;;10496926;28;20192;-22
2021/06/07 07:21:02;;;;;;;4.30;3.90;;;18.80;81.10;;;;;;10483278;28;20216;-22
2021/06/07 07:26:23;;;;;;;4.87;4.37;;;18.80;81.30;;;;;;10494944;28;20583;-23
2021/06/07 07:31:45;;;;;;;4.50;4.10;;;18.80;80.90;;;;;;10498433;28;20212;-21
2021/06/07 07:37:09;;;;;;;5.17;4.70;;;18.80;81.00;;;;;;10491713;28;20219;-22
2021/06/07 07:42:31;;;;;;;5.47;4.47;;;18.80;80.90;;;;;;10477550;28;20219;-23
2021/06/07 07:47:53;;;;;;;4.80;4.40;;;18.80;80.90;;;;;;10496956;28;20231;-21
2021/06/07 07:53:16;;;;;;;4.60;4.20;;;18.80;80.80;;;;;;10496522;28;20686;-21
2021/06/07 07:58:38;;;;;;;4.77;4.37;;;18.80;80.80;;;;;;10488328;28;20196;-22
2021/06/07 08:04:00;;;;;;;4.40;4.00;;;18.90;80.80;;;;;;10482109;28;20227;-22
2021/06/07 08:09:23;;;;;;;4.90;4.20;;;18.80;80.60;;;;;;10496584;28;20216;-22
2021/06/07 08:14:45;;;;;;;4.50;4.10;;;18.80;80.50;;;;;;10495503;28;20726;-22
2021/06/07 08:20:09;;;;;;;4.50;4.10;;;18.90;80.70;;;;;;10496273;28;20189;-23
2021/06/07 08:25:32;;;;;;;4.67;4.27;;;18.90;80.60;;;;;;10492275;28;20219;-21
2021/06/07 08:30:54;;;;;;;4.30;3.90;;;18.90;80.80;;;;;;10491707;28;20734;-22
2021/06/07 08:36:15;;;;;;;4.73;4.27;;;18.90;80.70;;;;;;10492616;28;20835;-21
2021/06/07 08:41:38;;;;;;;4.90;4.40;;;18.80;80.50;;;;;;10493243;28;20220;-21
2021/06/07 08:47:00;;;;;;;4.50;4.10;;;18.80;80.50;;;;;;10494967;28;20211;-21
2021/06/07 08:52:22;;;;;;;4.23;3.87;;;18.90;80.60;;;;;;10494211;28;20224;-22
2021/06/07 08:57:46;;;;;;;4.60;4.20;;;18.80;80.50;;;;;;10486301;28;20192;-22
2021/06/07 09:03:11;;;;;;;4.20;3.87;;;18.80;80.50;;;;;;10491811;28;20231;-22
2021/06/07 09:08:34;;;;;;;4.67;3.97;;;18.80;80.40;;;;;;10493466;28;20269;-22
2021/06/07 09:13:57;;;;;;;4.50;4.10;;;18.90;80.00;;;;;;10493001;28;20617;-21
2021/06/07 09:19:25;;;;;;;5.27;4.20;;;18.90;80.20;;;;;;10484830;28;20200;-17
2021/06/07 09:25:03;;;;;;;4.60;4.20;;;18.90;80.20;;;;;;10492650;28;20212;-22
2021/06/07 09:30:27;;;;;;;4.60;4.20;;;18.90;80.10;;;;;;10484694;28;20246;-21
2021/06/07 09:36:07;;;;;;;4.80;4.40;;;19.00;80.20;;;;;;10493927;28;20486;-21
2021/06/07 09:41:30;;;;;;;4.30;3.90;;;19.00;80.20;;;;;;10472994;28;20212;-22
2021/06/07 09:47:08;;;;;;;4.20;3.90;;;19.00;80.30;;;;;;10490688;28;20258;-21
2021/06/07 09:52:32;;;;;;;4.40;4.00;;;19.00;80.40;;;;;;10479448;28;20512;-21
2021/06/07 09:57:55;;;;;;;4.30;4.00;;;18.90;80.40;;;;;;10490283;28;20672;-21
2021/06/07 10:03:21;;;;;;;4.20;3.80;;;18.90;80.40;;;;;;10470269;28;20216;-21
2021/06/07 10:08:45;;;;;;;4.60;4.20;;;18.90;80.20;;;;;;10484377;28;20216;-21
2021/06/07 10:14:09;;;;;;;5.43;4.30;;;18.90;80.40;;;;;;10492160;28;20228;-23
2021/06/07 10:19:36;;;;;;;4.87;4.37;;;18.90;80.70;;;;;;10491938;28;20196;-21
2021/06/07 10:24:58;;;;;;;5.20;4.33;;;18.90;80.70;;;;;;10451139;28;20215;-23
2021/06/07 10:30:22;;;;;;;3.83;3.50;;;18.90;80.90;;;;;;10451175;28;20185;-22
2021/06/07 10:35:45;;;;;;;4.40;4.00;;;18.90;80.80;;;;;;10450554;28;20189;-21
2021/06/07 10:41:21;;;;;;;4.43;4.03;;;18.90;80.90;;;;;;10460615;28;20216;-22
2021/06/07 10:46:44;;;;;;;4.80;4.30;;;18.90;80.80;;;;;;10490805;28;20595;-22
2021/06/07 10:52:09;;;;;;;4.87;4.40;;;18.90;80.90;;;;;;10492125;28;20594;-22
2021/06/07 10:57:34;;;;;;;4.30;3.90;;;18.90;80.80;;;;;;10495108;28;20200;-24
2021/06/07 11:02:57;;;;;;;4.17;3.77;;;18.90;80.80;;;;;;10505474;28;20270;-22
2021/06/07 11:08:24;;;;;;;4.20;3.80;;;18.90;80.00;;;;;;10496075;28;20726;-20
2021/06/07 11:13:48;;;;;;;4.30;3.90;;;19.00;80.90;;;;;;10536479;22;20242;-23
2021/06/07 11:19:11;;;;;;;4.70;4.03;;;18.90;80.30;;;;;;10535610;28;20234;-24
2021/06/07 11:24:38;;;;;;;4.77;4.20;;;18.90;79.90;;;;;;10539250;28;20225;-25
2021/06/07 11:30:08;;;;;;;6.37;4.30;;;19.00;79.10;;;;;;10538037;28;20226;-23
2021/06/07 11:35:43;;;;;;;12.33;5.10;;;19.10;78.40;;;;;;10524260;28;20223;-25
2021/06/07 11:41:26;;;;;;;11.10;5.33;;;19.10;78.10;;;;;;10507327;28;20192;-23
2021/06/07 11:46:55;;;;;;;10.33;5.40;;;19.20;78.20;;;;;;10536634;28;20676;-24
2021/06/07 11:52:16;;;;;;;8.43;5.53;;;19.20;78.10;;;;;;10539217;28;20261;-23
2021/06/07 11:57:39;;;;;;;12.73;5.77;;;19.20;79.50;;;;;;10537725;28;20196;-22
2021/06/07 12:03:05;;;;;;;8.27;5.37;;;19.20;79.70;;;;;;10537570;28;20585;-25
2021/06/07 12:08:27;;;;;;;11.90;6.47;;;19.10;80.00;;;;;;10536647;28;20705;-22
2021/06/07 12:13:50;;;;;;;9.53;5.60;;;19.10;80.10;;;;;;10527446;28;20227;-22
2021/06/07 12:19:12;;;;;;;13.07;6.30;;;19.10;79.90;;;;;;10535839;28;20184;-22
2021/06/07 12:24:34;;;;;;;11.87;6.10;;;19.10;80.30;;;;;;10535178;28;20247;-23
2021/06/07 12:29:57;;;;;;;7.13;5.40;;;19.00;80.20;;;;;;10534897;28;20770;-23
2021/06/07 12:35:20;;;;;;;9.23;6.20;;;19.00;80.10;;;;;;10537728;28;20216;-25
2021/06/07 12:40:42;;;;;;;9.97;5.10;;;19.00;80.10;;;;;;10537280;28;20249;-27
2021/06/07 12:46:07;;;;;;;7.23;5.50;;;19.00;80.10;;;;;;10528988;28;20215;-23
2021/06/07 12:51:29;;;;;;;7.47;5.47;;;19.00;80.20;;;;;;10525506;28;20292;-22
2021/06/07 12:56:51;;;;;;;7.77;5.37;;;19.00;80.20;;;;;;10536041;28;20188;-21
2021/06/07 13:02:30;;;;;;;8.80;5.17;;;18.90;80.20;;;;;;10532965;28;20614;-22
2021/06/07 13:08:18;;;;;;;6.67;5.20;;;18.90;80.20;;;;;;10529004;28;20212;-24
2021/06/07 13:13:46;;;;;;;7.03;4.83;;;19.00;80.20;;;;;;10534625;28;20231;-24
2021/06/07 13:19:10;;;;;;;8.07;5.30;;;19.00;80.20;;;;;;10551377;28;20199;-20
2021/06/07 13:24:33;;;;;;;6.27;5.50;;;19.00;80.40;;;;;;10576421;28;20258;-23
2021/06/07 13:30:06;;;;;;;6.77;5.83;;;19.10;80.50;;;;;;10575621;28;20218;-23
2021/06/07 13:35:29;;;;;;;8.17;5.20;;;19.10;80.70;;;;;;10554801;28;20216;-23
2021/06/07 13:40:51;;;;;;;6.03;5.30;;;19.10;80.90;;;;;;10528568;28;20599;-23
2021/06/07 13:46:23;;;;;;;7.07;5.77;;;19.10;80.80;;;;;;10533113;28;20295;-23
2021/06/07 13:51:46;;;;;;;6.70;5.73;;;19.10;80.70;;;;;;10531313;28;20265;-23
2021/06/07 13:57:09;;;;;;;8.77;5.83;;;19.20;80.90;;;;;;10534221;28;20620;-21
2021/06/07 14:02:31;;;;;;;7.63;5.20;;;19.20;81.30;;;;;;10523603;28;20269;-24
2021/06/07 14:07:54;;;;;;;7.27;5.93;;;19.20;81.10;;;;;;10534134;28;20214;-23
2021/06/07 14:13:16;;;;;;;7.07;5.77;;;19.20;81.00;;;;;;10523882;28;20633;-23
2021/06/07 14:18:39;;;;;;;8.30;5.70;;;19.20;80.80;;;;;;10534151;28;20662;-24
2021/06/07 14:29:43;;;;;;;7.07;6.30;;;19.30;80.60;;;;;;10534228;28;20712;-24
2021/06/07 14:35:06;;;;;;;5.87;5.37;;;19.20;80.60;;;;;;10538023;28;20624;-24
2021/06/07 14:40:29;;;;;;;7.93;6.37;;;19.20;80.50;;;;;;10541541;28;20218;-25
2021/06/07 14:45:51;;;;;;;7.60;6.07;;;19.10;80.60;;;;;;10541119;28;20713;-23
2021/06/07 14:51:14;;;;;;;7.43;6.03;;;19.10;80.70;;;;;;10540973;28;20257;-23
2021/06/07 14:56:37;;;;;;;6.37;5.63;;;19.10;80.80;;;;;;10539639;28;20196;-23
2021/06/07 15:01:58;;;;;;;10.03;6.87;;;19.10;80.80;;;;;;10540985;28;20266;-24
2021/06/07 15:07:20;;;;;;;9.70;6.77;;;19.00;80.80;;;;;;10533357;28;20656;-22
2021/06/07 15:12:43;;;;;;;6.80;6.10;;;19.10;80.90;;;;;;10541979;28;20235;-23
2021/06/07 15:18:05;;;;;;;6.80;6.10;;;19.00;80.90;;;;;;10537575;28;20200;-22
2021/06/07 15:23:27;;;;;;;8.30;6.37;;;19.00;81.00;;;;;;10540866;28;20223;-23
2021/06/07 15:28:50;;;;;;;6.57;5.90;;;19.00;80.90;;;;;;10541028;28;20247;-25
2021/06/07 15:34:11;;;;;;;6.67;6.00;;;19.00;80.90;;;;;;10539524;28;20204;-24
2021/06/07 15:39:33;;;;;;;7.00;6.03;;;19.00;80.90;;;;;;10538293;28;20188;-23
2021/06/07 15:44:56;;;;;;;6.70;6.00;;;19.00;80.90;;;;;;10498060;28;20606;-23
2021/06/07 15:50:24;;;;;;;6.67;5.70;;;19.00;80.90;;;;;;10497697;28;20223;-24
2021/06/07 15:55:45;;;;;;;6.60;5.90;;;19.00;80.90;;;;;;10497906;28;20246;-23
2021/06/07 16:01:11;;;;;;;8.20;6.23;;;19.00;80.90;;;;;;10514343;28;20199;-23
2021/06/07 16:06:35;;;;;;;6.87;5.60;;;18.90;80.80;;;;;;10539729;28;20203;-23
2021/06/07 16:11:56;;;;;;;5.87;5.37;;;18.90;80.80;;;;;;10538902;28;20714;-23
2021/06/07 16:17:19;;;;;;;7.00;6.30;;;18.90;80.80;;;;;;10534696;28;20187;-23
2021/06/07 16:22:41;;;;;;;7.30;5.93;;;18.90;80.90;;;;;;10530710;28;20215;-23
2021/06/07 16:28:03;;;;;;;6.13;5.63;;;18.90;80.80;;;;;;10535901;28;20678;-24
2021/06/07 16:33:26;;;;;;;6.20;5.60;;;18.90;80.80;;;;;;10534946;28;20208;-23
2021/06/07 16:38:48;;;;;;;6.90;5.80;;;18.90;80.70;;;;;;10534921;28;20191;-21
2021/06/07 16:44:10;;;;;;;6.47;5.87;;;18.90;80.70;;;;;;10534078;28;20611;-22
2021/06/07 16:49:33;;;;;;;6.37;5.77;;;18.90;80.70;;;;;;10536466;28;20215;-24
2021/06/07 16:54:54;;;;;;;7.40;5.97;;;18.90;80.80;;;;;;10532915;28;20216;-22
2021/06/07 17:00:18;;;;;;;5.97;5.43;;;18.90;80.80;;;;;;10534173;28;20188;-24
2021/06/07 17:05:41;;;;;;;6.37;5.70;;;18.90;80.90;;;;;;10532541;28;20208;-23
2021/06/07 17:11:03;;;;;;;6.13;5.37;;;18.90;80.90;;;;;;10528989;28;20563;-25
2021/06/07 17:16:24;;;;;;;6.17;5.57;;;18.90;80.90;;;;;;10515946;22;20221;-23
2021/06/07 17:21:47;;;;;;;5.87;5.37;;;18.90;80.90;;;;;;10451254;28;20196;-21
2021/06/07 17:27:10;;;;;;;6.27;5.67;;;18.90;81.50;;;;;;10451087;28;20205;-19
2021/06/07 17:32:32;;;;;;;6.13;5.47;;;18.90;81.00;;;;;;10449941;28;20201;-21
2021/06/07 17:37:55;;;;;;;6.47;5.83;;;18.90;81.00;;;;;;10448159;28;20217;-21
2021/06/07 17:43:16;;;;;;;6.50;5.50;;;18.90;81.00;;;;;;10449033;28;20197;-21
2021/06/07 17:48:38;;;;;;;6.30;5.70;;;18.90;81.00;;;;;;10447936;28;20225;-22
2021/06/07 17:54:01;;;;;;;6.30;5.70;;;18.90;81.00;;;;;;10451027;28;20204;-24
2021/06/07 17:59:22;;;;;;;6.57;5.57;;;18.90;81.10;;;;;;10446204;28;20286;-21
2021/06/07 18:04:44;;;;;;;6.17;5.43;;;18.90;81.10;;;;;;10450461;28;20193;-21
2021/06/07 18:10:08;;;;;;;6.20;5.60;;;18.80;81.00;;;;;;10453307;28;20204;-21
2021/06/07 18:15:30;;;;;;;6.10;5.50;;;18.90;81.10;;;;;;10450292;28;20227;-22
2021/06/07 18:20:52;;;;;;;7.33;5.37;;;18.80;81.00;;;;;;10452895;28;20196;-24
2021/06/07 18:26:15;;;;;;;5.87;5.30;;;18.90;81.10;;;;;;10451726;28;20228;-20
2021/06/07 18:31:37;;;;;;;5.53;5.03;;;18.80;81.00;;;;;;10450839;28;20204;-22
2021/06/07 18:36:58;;;;;;;5.63;5.13;;;18.80;81.00;;;;;;10450844;28;20212;-24
2021/06/07 18:42:21;;;;;;;5.37;4.87;;;18.80;81.00;;;;;;10449467;28;20577;-23
2021/06/07 18:47:43;;;;;;;5.77;5.23;;;18.80;81.00;;;;;;10450160;28;20220;-24
2021/06/07 18:53:04;;;;;;;5.40;4.93;;;18.80;81.00;;;;;;10450616;28;20192;-23
2021/06/07 18:58:27;;;;;;;5.63;5.13;;;18.80;81.00;;;;;;10450869;28;20213;-24
2021/06/07 19:03:49;;;;;;;5.77;5.17;;;18.80;81.00;;;;;;10450668;28;20255;-24
2021/06/07 19:09:11;;;;;;;6.07;5.47;;;18.80;81.00;;;;;;10450529;28;20209;-25
2021/06/07 19:14:34;;;;;;;5.57;5.00;;;18.80;81.00;;;;;;10450339;28;20572;-25
2021/06/07 19:19:55;;;;;;;6.20;5.60;;;18.80;81.00;;;;;;10491551;28;20204;-23
2021/06/07 19:25:17;;;;;;;5.63;5.13;;;18.80;81.00;;;;;;10492041;28;20223;-28
2021/06/07 19:30:40;;;;;;;5.30;4.80;;;18.80;81.00;;;;;;10492146;28;20231;-23
2021/06/07 19:36:01;;;;;;;6.00;5.47;;;18.80;81.00;;;;;;10494839;28;20219;-26
2021/06/07 19:41:25;;;;;;;6.37;5.77;;;18.80;81.00;;;;;;10496056;28;20195;-23
2021/06/07 19:46:48;;;;;;;6.47;5.10;;;18.80;80.90;;;;;;10495091;28;20225;-25
2021/06/07 19:52:11;;;;;;;5.73;5.13;;;18.80;80.90;;;;;;10495637;28;20567;-25
2021/06/07 19:57:33;;;;;;;6.23;5.63;;;18.80;81.10;;;;;;10495472;28;20273;-23
2021/06/07 20:02:55;;;;;;;6.43;5.47;;;18.70;81.00;;;;;;10494496;28;20192;-23
2021/06/07 20:08:18;;;;;;;5.60;5.07;;;18.80;81.10;;;;;;10495893;28;20719;-22
2021/06/07 20:13:39;;;;;;;5.47;5.07;;;18.80;81.10;;;;;;10495294;28;20197;-22
2021/06/07 20:19:02;;;;;;;5.77;5.27;;;18.80;81.20;;;;;;10457092;28;20718;-23
2021/06/07 20:24:24;;;;;;;6.17;5.57;;;18.80;81.10;;;;;;10453911;28;20247;-21
2021/06/07 20:29:46;;;;;;;5.57;5.03;;;18.80;81.10;;;;;;10453488;28;20209;-22
2021/06/07 20:35:11;;;;;;;5.83;5.20;;;18.80;81.10;;;;;;10453159;28;20220;-23
2021/06/07 20:40:34;;;;;;;6.20;5.63;;;18.80;81.10;;;;;;10453744;28;20193;-23
2021/06/07 20:45:56;;;;;;;5.73;5.13;;;18.80;81.10;;;;;;10454172;28;20720;-23
2021/06/07 20:51:19;;;;;;;5.40;4.90;;;18.80;81.10;;;;;;10453461;28;20263;-23
2021/06/07 20:56:41;;;;;;;5.47;4.97;;;18.80;81.10;;;;;;10446104;28;20217;-25
2021/06/07 21:02:03;;;;;;;6.10;5.50;;;18.80;81.10;;;;;;10444229;28;20193;-23
2021/06/07 21:07:26;;;;;;;5.90;5.30;;;18.80;81.10;;;;;;10452926;28;20217;-23
2021/06/07 21:12:49;;;;;;;4.97;4.57;;;18.80;81.10;;;;;;10452397;28;20193;-25
2021/06/07 21:18:10;;;;;;;5.93;5.40;;;18.80;81.10;;;;;;10481523;28;20224;-24
2021/06/07 21:23:33;;;;;;;5.07;4.67;;;18.80;81.10;;;;;;10492741;28;20196;-22
2021/06/07 21:28:55;;;;;;;5.60;5.10;;;18.80;81.00;;;;;;10492596;28;20725;-25
2021/06/07 21:34:17;;;;;;;5.23;4.73;;;18.80;81.10;;;;;;10493454;28;20219;-22
2021/06/07 21:39:40;;;;;;;5.23;4.73;;;18.70;81.00;;;;;;10516419;28;20236;-24
2021/06/07 21:45:02;;;;;;;4.80;4.40;;;18.70;81.00;;;;;;10502303;28;20246;-23
2021/06/07 21:50:24;;;;;;;5.50;5.00;;;18.70;81.00;;;;;;10493017;28;20216;-22
2021/06/07 21:55:47;;;;;;;4.83;4.33;;;18.80;81.00;;;;;;10483996;28;20692;-22
2021/06/07 22:01:09;;;;;;;5.23;4.77;;;18.70;81.00;;;;;;10463403;28;20188;-23
2021/06/07 22:06:31;;;;;;;5.03;4.53;;;18.80;81.00;;;;;;10492151;28;20219;-24
2021/06/07 22:11:54;;;;;;;5.27;4.80;;;18.80;81.00;;;;;;10493439;28;20204;-24
2021/06/07 22:17:15;;;;;;;5.03;4.53;;;18.80;81.00;;;;;;10492652;28;20216;-23
2021/06/07 22:22:37;;;;;;;4.70;4.30;;;18.80;81.00;;;;;;10492377;28;20204;-23
2021/06/07 22:28:01;;;;;;;4.37;3.97;;;18.70;81.00;;;;;;10491920;28;20731;-23
2021/06/07 22:33:22;;;;;;;5.30;4.80;;;18.80;81.10;;;;;;10485198;28;20250;-23
2021/06/07 22:38:44;;;;;;;4.70;4.30;;;18.70;81.10;;;;;;10492030;28;20205;-23
2021/06/07 22:44:07;;;;;;;5.20;4.67;;;18.80;81.10;;;;;;10491781;28;20204;-26
2021/06/07 22:49:29;;;;;;;4.70;4.30;;;18.70;81.00;;;;;;10491547;28;20228;-23
2021/06/07 22:54:50;;;;;;;4.60;4.20;;;18.80;81.10;;;;;;10499076;28;20273;-23
2021/06/07 23:00:14;;;;;;;5.07;4.67;;;18.80;81.20;;;;;;10498934;28;20199;-23
2021/06/07 23:05:36;;;;;;;4.87;4.43;;;18.80;81.10;;;;;;10499359;28;20219;-23
2021/06/07 23:10:58;;;;;;;4.50;4.10;;;18.70;81.00;;;;;;10499555;28;20243;-25
2021/06/07 23:16:21;;;;;;;4.80;4.30;;;18.80;81.10;;;;;;10501112;23;22023;-24
2021/06/07 23:21:42;;;;;;;5.10;4.70;;;18.70;81.00;;;;;;10319539;28;20218;-24
2021/06/07 23:27:05;;;;;;;5.70;5.20;;;18.80;81.00;;;;;;10301599;28;20215;-25
2021/06/07 23:32:28;;;;;;;4.47;4.07;;;18.70;81.00;;;;;;10295725;28;20196;-23
2021/06/07 23:37:49;;;;;;;4.63;4.23;;;18.80;81.10;;;;;;10287150;28;20216;-26
2021/06/07 23:43:11;;;;;;;4.40;4.00;;;18.80;81.00;;;;;;10313269;28;20202;-23
2021/06/07 23:48:34;;;;;;;4.20;3.90;;;18.70;81.00;;;;;;10328353;28;20215;-24
2021/06/07 23:53:56;;;;;;;4.93;4.10;;;18.70;81.00;;;;;;10305124;28;20204;-24
2021/06/07 23:59:17;;;;;;;4.73;4.33;;;18.70;81.00;;;;;;10313340;28;20218;-24
